Terminal Aerodrome Forecast
Issued by NWS

Home | Current Version | Previous Version | Text Only | Print | Product List | Glossary Off
Versions: 1 2 3 4 5 6 7 8 9 10 11 12 13 14 15 16 17

000
FTUS43 KICT 021725
TAFSLN
TAF
KSLN 021725Z 0218/0318 01009KT P6SM VCTS SCT030 BKN060CB
     FM022300 01007KT P6SM SCT060 BKN150
     FM030000 33008KT P6SM BKN080
     FM030900 VRB03KT P6SM SCT250=

USA.gov is the U.S. government's official web portal to all federal, state and local government web resources and services.